sensor_id;sensor_type;location;lat;lon;timestamp;P1;durP1;ratioP1;P2;durP2;ratioP2
77226;SDS011;66234;47.642;19.144;2023-04-01T00:01:45;2.40;;;0.82;;
77226;SDS011;66234;47.642;19.144;2023-04-01T00:04:48;4.75;;;2.00;;
77226;SDS011;66234;47.642;19.144;2023-04-01T00:07:50;4.63;;;1.23;;
77226;SDS011;66234;47.642;19.144;2023-04-01T00:10:53;2.93;;;1.20;;
77226;SDS011;66234;47.642;19.144;2023-04-01T00:13:56;1.95;;;1.08;;
77226;SDS011;66234;47.642;19.144;2023-04-01T00:16:59;4.40;;;2.08;;
77226;SDS011;66234;47.642;19.144;2023-04-01T00:20:02;4.50;;;1.90;;
77226;SDS011;66234;47.642;19.144;2023-04-01T00:23:05;2.10;;;0.97;;
77226;SDS011;66234;47.642;19.144;2023-04-01T00:26:08;3.47;;;1.00;;
77226;SDS011;66234;47.642;19.144;2023-04-01T00:29:12;2.05;;;1.05;;
77226;SDS011;66234;47.642;19.144;2023-04-01T00:32:14;1.42;;;0.63;;
77226;SDS011;66234;47.642;19.144;2023-04-01T00:35:17;1.40;;;0.70;;
77226;SDS011;66234;47.642;19.144;2023-04-01T00:38:20;1.40;;;0.60;;
77226;SDS011;66234;47.642;19.144;2023-04-01T00:41:22;2.60;;;0.53;;
77226;SDS011;66234;47.642;19.144;2023-04-01T00:44:29;2.80;;;0.60;;
77226;SDS011;66234;47.642;19.144;2023-04-01T00:47:34;1.98;;;0.50;;
77226;SDS011;66234;47.642;19.144;2023-04-01T00:50:38;2.33;;;0.40;;
77226;SDS011;66234;47.642;19.144;2023-04-01T00:53:43;1.87;;;0.70;;
77226;SDS011;66234;47.642;19.144;2023-04-01T00:56:56;2.67;;;0.47;;
77226;SDS011;66234;47.642;19.144;2023-04-01T01:00:04;1.13;;;0.70;;
77226;SDS011;66234;47.642;19.144;2023-04-01T01:03:09;2.72;;;0.60;;
77226;SDS011;66234;47.642;19.144;2023-04-01T01:09:51;0.43;;;0.20;;
77226;SDS011;66234;47.642;19.144;2023-04-01T01:16:00;4.35;;;0.80;;
77226;SDS011;66234;47.642;19.144;2023-04-01T01:27:07;1.47;;;0.40;;
77226;SDS011;66234;47.642;19.144;2023-04-01T01:34:07;3.03;;;0.70;;
77226;SDS011;66234;47.642;19.144;2023-04-01T01:37:22;0.95;;;0.30;;
77226;SDS011;66234;47.642;19.144;2023-04-01T01:40:29;1.20;;;0.40;;
77226;SDS011;66234;47.642;19.144;2023-04-01T01:43:44;1.27;;;0.60;;
77226;SDS011;66234;47.642;19.144;2023-04-01T01:46:51;1.27;;;0.70;;
77226;SDS011;66234;47.642;19.144;2023-04-01T01:49:54;1.80;;;0.68;;
77226;SDS011;66234;47.642;19.144;2023-04-01T01:53:01;1.88;;;0.40;;
77226;SDS011;66234;47.642;19.144;2023-04-01T01:56:14;2.67;;;0.50;;
77226;SDS011;66234;47.642;19.144;2023-04-01T01:59:20;2.40;;;0.60;;
77226;SDS011;66234;47.642;19.144;2023-04-01T02:02:28;1.73;;;0.50;;
77226;SDS011;66234;47.642;19.144;2023-04-01T02:05:33;2.40;;;0.38;;
77226;SDS011;66234;47.642;19.144;2023-04-01T02:09:01;2.58;;;0.30;;
77226;SDS011;66234;47.642;19.144;2023-04-01T02:12:07;2.88;;;0.20;;
77226;SDS011;66234;47.642;19.144;2023-04-01T02:15:15;0.57;;;0.27;;
77226;SDS011;66234;47.642;19.144;2023-04-01T02:18:21;2.43;;;0.43;;
77226;SDS011;66234;47.642;19.144;2023-04-01T02:21:26;1.23;;;0.22;;
77226;SDS011;66234;47.642;19.144;2023-04-01T02:24:33;0.68;;;0.20;;
77226;SDS011;66234;47.642;19.144;2023-04-01T02:27:40;0.93;;;0.30;;
77226;SDS011;66234;47.642;19.144;2023-04-01T02:30:45;1.50;;;0.50;;
77226;SDS011;66234;47.642;19.144;2023-04-01T02:33:50;2.90;;;0.70;;
77226;SDS011;66234;47.642;19.144;2023-04-01T02:36:53;1.67;;;0.80;;
77226;SDS011;66234;47.642;19.144;2023-04-01T02:40:03;1.23;;;0.30;;
77226;SDS011;66234;47.642;19.144;2023-04-01T02:43:08;1.55;;;0.40;;
77226;SDS011;66234;47.642;19.144;2023-04-01T02:46:11;1.97;;;0.43;;
77226;SDS011;66234;47.642;19.144;2023-04-01T02:49:13;1.60;;;0.40;;
77226;SDS011;66234;47.642;19.144;2023-04-01T02:52:16;3.45;;;0.50;;
77226;SDS011;66234;47.642;19.144;2023-04-01T02:55:19;0.93;;;0.20;;
77226;SDS011;66234;47.642;19.144;2023-04-01T02:58:21;1.27;;;0.60;;
77226;SDS011;66234;47.642;19.144;2023-04-01T03:01:24;0.50;;;0.20;;
77226;SDS011;66234;47.642;19.144;2023-04-01T03:04:27;0.77;;;0.20;;
77226;SDS011;66234;47.642;19.144;2023-04-01T03:07:30;0.65;;;0.20;;
77226;SDS011;66234;47.642;19.144;2023-04-01T03:10:32;0.70;;;0.20;;
77226;SDS011;66234;47.642;19.144;2023-04-01T03:13:35;1.48;;;0.47;;
77226;SDS011;66234;47.642;19.144;2023-04-01T03:16:38;1.37;;;0.40;;
77226;SDS011;66234;47.642;19.144;2023-04-01T03:19:41;1.10;;;0.30;;
77226;SDS011;66234;47.642;19.144;2023-04-01T03:22:45;0.52;;;0.15;;
77226;SDS011;66234;47.642;19.144;2023-04-01T03:25:48;1.05;;;0.50;;
77226;SDS011;66234;47.642;19.144;2023-04-01T03:28:51;0.60;;;0.40;;
77226;SDS011;66234;47.642;19.144;2023-04-01T03:31:55;0.40;;;0.13;;
77226;SDS011;66234;47.642;19.144;2023-04-01T03:35:00;1.07;;;0.40;;
77226;SDS011;66234;47.642;19.144;2023-04-01T03:38:02;1.55;;;0.30;;
77226;SDS011;66234;47.642;19.144;2023-04-01T03:41:05;1.25;;;0.50;;
77226;SDS011;66234;47.642;19.144;2023-04-01T03:44:08;1.00;;;0.40;;
77226;SDS011;66234;47.642;19.144;2023-04-01T03:47:11;6.53;;;0.57;;
77226;SDS011;66234;47.642;19.144;2023-04-01T03:50:13;1.83;;;0.67;;
77226;SDS011;66234;47.642;19.144;2023-04-01T03:53:16;1.45;;;0.38;;
77226;SDS011;66234;47.642;19.144;2023-04-01T03:56:21;1.52;;;0.25;;
77226;SDS011;66234;47.642;19.144;2023-04-01T03:59:24;0.50;;;0.13;;
77226;SDS011;66234;47.642;19.144;2023-04-01T04:02:27;0.50;;;0.27;;
77226;SDS011;66234;47.642;19.144;2023-04-01T04:05:29;1.73;;;0.43;;
77226;SDS011;66234;47.642;19.144;2023-04-01T04:08:33;2.03;;;0.35;;
77226;SDS011;66234;47.642;19.144;2023-04-01T04:11:36;0.90;;;0.30;;
77226;SDS011;66234;47.642;19.144;2023-04-01T04:14:39;2.00;;;0.40;;
77226;SDS011;66234;47.642;19.144;2023-04-01T04:17:42;2.43;;;0.40;;
77226;SDS011;66234;47.642;19.144;2023-04-01T04:20:48;2.90;;;0.30;;
77226;SDS011;66234;47.642;19.144;2023-04-01T04:23:54;1.92;;;0.10;;
77226;SDS011;66234;47.642;19.144;2023-04-01T04:26:57;1.08;;;0.13;;
77226;SDS011;66234;47.642;19.144;2023-04-01T04:30:00;1.17;;;0.30;;
77226;SDS011;66234;47.642;19.144;2023-04-01T04:33:04;4.63;;;0.40;;
77226;SDS011;66234;47.642;19.144;2023-04-01T04:36:07;1.80;;;0.27;;
77226;SDS011;66234;47.642;19.144;2023-04-01T04:39:10;2.28;;;0.50;;
77226;SDS011;66234;47.642;19.144;2023-04-01T04:42:14;0.90;;;0.20;;
77226;SDS011;66234;47.642;19.144;2023-04-01T04:45:18;1.60;;;0.43;;
77226;SDS011;66234;47.642;19.144;2023-04-01T04:48:28;1.23;;;0.37;;
77226;SDS011;66234;47.642;19.144;2023-04-01T04:51:30;2.07;;;0.50;;
77226;SDS011;66234;47.642;19.144;2023-04-01T04:54:36;2.00;;;0.30;;
77226;SDS011;66234;47.642;19.144;2023-04-01T04:57:39;2.63;;;0.60;;
77226;SDS011;66234;47.642;19.144;2023-04-01T05:00:42;1.83;;;0.30;;
77226;SDS011;66234;47.642;19.144;2023-04-01T05:03:53;0.80;;;0.20;;
77226;SDS011;66234;47.642;19.144;2023-04-01T05:06:55;1.30;;;0.40;;
77226;SDS011;66234;47.642;19.144;2023-04-01T05:09:58;3.17;;;0.45;;
77226;SDS011;66234;47.642;19.144;2023-04-01T05:13:01;1.90;;;0.40;;
77226;SDS011;66234;47.642;19.144;2023-04-01T05:16:07;3.28;;;0.70;;
77226;SDS011;66234;47.642;19.144;2023-04-01T05:19:12;1.03;;;0.60;;
77226;SDS011;66234;47.642;19.144;2023-04-01T05:22:14;4.97;;;2.17;;
77226;SDS011;66234;47.642;19.144;2023-04-01T05:25:18;2.28;;;1.30;;
77226;SDS011;66234;47.642;19.144;2023-04-01T05:28:20;3.75;;;0.77;;
77226;SDS011;66234;47.642;19.144;2023-04-01T05:31:23;1.27;;;0.70;;
77226;SDS011;66234;47.642;19.144;2023-04-01T05:34:27;2.17;;;0.73;;
77226;SDS011;66234;47.642;19.144;2023-04-01T05:37:30;1.07;;;0.53;;
77226;SDS011;66234;47.642;19.144;2023-04-01T05:40:37;3.22;;;0.70;;
77226;SDS011;66234;47.642;19.144;2023-04-01T05:43:40;1.50;;;0.63;;
77226;SDS011;66234;47.642;19.144;2023-04-01T05:47:19;1.38;;;1.05;;
77226;SDS011;66234;47.642;19.144;2023-04-01T05:50:23;3.67;;;0.60;;
77226;SDS011;66234;47.642;19.144;2023-04-01T05:53:26;1.27;;;0.57;;
77226;SDS011;66234;47.642;19.144;2023-04-01T05:56:28;2.72;;;0.75;;
77226;SDS011;66234;47.642;19.144;2023-04-01T05:59:31;1.67;;;0.45;;
77226;SDS011;66234;47.642;19.144;2023-04-01T06:02:34;1.48;;;0.40;;
77226;SDS011;66234;47.642;19.144;2023-04-01T06:05:40;1.47;;;0.47;;
77226;SDS011;66234;47.642;19.144;2023-04-01T06:08:45;1.83;;;0.60;;
77226;SDS011;66234;47.642;19.144;2023-04-01T06:19:19;1.13;;;0.50;;
77226;SDS011;66234;47.642;19.144;2023-04-01T06:22:25;1.10;;;0.33;;
77226;SDS011;66234;47.642;19.144;2023-04-01T06:25:36;1.30;;;0.50;;
77226;SDS011;66234;47.642;19.144;2023-04-01T06:28:59;2.55;;;0.57;;
77226;SDS011;66234;47.642;19.144;2023-04-01T06:35:31;2.15;;;0.30;;
77226;SDS011;66234;47.642;19.144;2023-04-01T06:42:04;0.93;;;0.53;;
77226;SDS011;66234;47.642;19.144;2023-04-01T06:56:40;0.87;;;0.30;;
77226;SDS011;66234;47.642;19.144;2023-04-01T06:59:50;2.00;;;0.23;;
77226;SDS011;66234;47.642;19.144;2023-04-01T07:02:55;3.83;;;0.38;;
77226;SDS011;66234;47.642;19.144;2023-04-01T07:06:10;2.60;;;0.25;;
77226;SDS011;66234;47.642;19.144;2023-04-01T07:09:34;2.20;;;0.22;;
77226;SDS011;66234;47.642;19.144;2023-04-01T07:13:00;2.10;;;0.53;;
77226;SDS011;66234;47.642;19.144;2023-04-01T07:16:15;1.00;;;0.30;;
77226;SDS011;66234;47.642;19.144;2023-04-01T07:19:25;0.65;;;0.20;;
77226;SDS011;66234;47.642;19.144;2023-04-01T07:22:45;0.55;;;0.10;;
77226;SDS011;66234;47.642;19.144;2023-04-01T07:26:17;1.63;;;0.35;;
77226;SDS011;66234;47.642;19.144;2023-04-01T07:29:44;1.77;;;0.50;;
77226;SDS011;66234;47.642;19.144;2023-04-01T07:36:00;1.27;;;0.47;;
77226;SDS011;66234;47.642;19.144;2023-04-01T07:42:40;2.78;;;0.30;;
77226;SDS011;66234;47.642;19.144;2023-04-01T07:49:16;0.90;;;0.40;;
77226;SDS011;66234;47.642;19.144;2023-04-01T07:52:39;0.50;;;0.20;;
77226;SDS011;66234;47.642;19.144;2023-04-01T07:56:15;1.92;;;0.28;;
77226;SDS011;66234;47.642;19.144;2023-04-01T07:59:31;1.08;;;0.40;;
77226;SDS011;66234;47.642;19.144;2023-04-01T08:18:00;0.95;;;0.65;;
77226;SDS011;66234;47.642;19.144;2023-04-01T08:21:19;0.73;;;0.30;;
77226;SDS011;66234;47.642;19.144;2023-04-01T08:24:33;1.87;;;0.60;;
77226;SDS011;66234;47.642;19.144;2023-04-01T08:34:26;1.35;;;0.20;;
77226;SDS011;66234;47.642;19.144;2023-04-01T08:37:38;1.80;;;0.30;;
77226;SDS011;66234;47.642;19.144;2023-04-01T08:40:53;0.73;;;0.47;;
77226;SDS011;66234;47.642;19.144;2023-04-01T09:02:32;1.13;;;0.30;;
77226;SDS011;66234;47.642;19.144;2023-04-01T09:16:20;1.37;;;0.60;;
77226;SDS011;66234;47.642;19.144;2023-04-01T09:33:15;2.30;;;0.70;;
77226;SDS011;66234;47.642;19.144;2023-04-01T09:53:21;2.47;;;0.77;;
77226;SDS011;66234;47.642;19.144;2023-04-01T10:20:46;2.93;;;0.90;;
77226;SDS011;66234;47.642;19.144;2023-04-01T10:28:02;2.53;;;0.63;;
77226;SDS011;66234;47.642;19.144;2023-04-01T10:31:45;1.67;;;0.70;;
77226;SDS011;66234;47.642;19.144;2023-04-01T11:14:49;2.17;;;0.80;;
77226;SDS011;66234;47.642;19.144;2023-04-01T11:28:27;3.47;;;0.77;;
77226;SDS011;66234;47.642;19.144;2023-04-01T11:39:13;1.90;;;0.40;;
77226;SDS011;66234;47.642;19.144;2023-04-01T11:46:17;2.22;;;0.70;;
77226;SDS011;66234;47.642;19.144;2023-04-01T11:53:26;3.13;;;0.67;;
77226;SDS011;66234;47.642;19.144;2023-04-01T12:09:39;0.60;;;0.20;;
77226;SDS011;66234;47.642;19.144;2023-04-01T12:19:57;2.88;;;0.70;;
77226;SDS011;66234;47.642;19.144;2023-04-01T12:34:15;0.93;;;0.28;;
77226;SDS011;66234;47.642;19.144;2023-04-01T12:37:54;1.20;;;0.30;;
77226;SDS011;66234;47.642;19.144;2023-04-01T12:44:23;1.43;;;0.40;;
77226;SDS011;66234;47.642;19.144;2023-04-01T13:02:07;1.80;;;0.57;;
77226;SDS011;66234;47.642;19.144;2023-04-01T13:05:15;2.65;;;0.57;;
77226;SDS011;66234;47.642;19.144;2023-04-01T13:08:48;1.67;;;0.45;;
77226;SDS011;66234;47.642;19.144;2023-04-01T13:21:25;2.25;;;0.50;;
77226;SDS011;66234;47.642;19.144;2023-04-01T13:28:24;1.30;;;0.50;;
77226;SDS011;66234;47.642;19.144;2023-04-01T13:34:55;1.60;;;0.70;;
77226;SDS011;66234;47.642;19.144;2023-04-01T13:41:35;1.05;;;0.45;;
77226;SDS011;66234;47.642;19.144;2023-04-01T13:45:00;1.08;;;0.70;;
77226;SDS011;66234;47.642;19.144;2023-04-01T13:52:14;1.50;;;0.40;;
77226;SDS011;66234;47.642;19.144;2023-04-01T14:16:00;2.17;;;0.90;;
77226;SDS011;66234;47.642;19.144;2023-04-01T14:19:48;2.95;;;0.70;;
77226;SDS011;66234;47.642;19.144;2023-04-01T14:26:35;3.53;;;0.87;;
77226;SDS011;66234;47.642;19.144;2023-04-01T14:36:49;3.00;;;0.60;;
77226;SDS011;66234;47.642;19.144;2023-04-01T14:40:15;1.73;;;0.40;;
77226;SDS011;66234;47.642;19.144;2023-04-01T14:43:42;1.23;;;0.70;;
77226;SDS011;66234;47.642;19.144;2023-04-01T14:50:17;1.58;;;0.63;;
77226;SDS011;66234;47.642;19.144;2023-04-01T14:53:27;0.57;;;0.32;;
77226;SDS011;66234;47.642;19.144;2023-04-01T14:56:35;0.90;;;0.27;;
77226;SDS011;66234;47.642;19.144;2023-04-01T14:59:49;1.23;;;0.30;;
77226;SDS011;66234;47.642;19.144;2023-04-01T15:02:59;1.30;;;0.30;;
77226;SDS011;66234;47.642;19.144;2023-04-01T15:09:35;1.00;;;0.40;;
77226;SDS011;66234;47.642;19.144;2023-04-01T15:29:28;3.00;;;1.60;;
77226;SDS011;66234;47.642;19.144;2023-04-01T15:46:26;3.03;;;1.20;;
77226;SDS011;66234;47.642;19.144;2023-04-01T15:49:52;3.90;;;1.90;;
77226;SDS011;66234;47.642;19.144;2023-04-01T15:53:17;0.68;;;0.25;;
77226;SDS011;66234;47.642;19.144;2023-04-01T15:56:50;2.38;;;0.40;;
77226;SDS011;66234;47.642;19.144;2023-04-01T16:03:34;2.53;;;0.50;;
77226;SDS011;66234;47.642;19.144;2023-04-01T16:09:59;3.13;;;1.40;;
77226;SDS011;66234;47.642;19.144;2023-04-01T16:20:19;5.07;;;1.20;;
77226;SDS011;66234;47.642;19.144;2023-04-01T16:23:26;1.67;;;0.67;;
77226;SDS011;66234;47.642;19.144;2023-04-01T16:26:40;1.50;;;0.90;;
77226;SDS011;66234;47.642;19.144;2023-04-01T16:29:57;1.15;;;0.50;;
77226;SDS011;66234;47.642;19.144;2023-04-01T16:37:00;2.00;;;0.90;;
77226;SDS011;66234;47.642;19.144;2023-04-01T16:43:15;3.50;;;1.40;;
77226;SDS011;66234;47.642;19.144;2023-04-01T16:49:52;1.65;;;0.90;;
77226;SDS011;66234;47.642;19.144;2023-04-01T16:53:08;1.73;;;0.70;;
77226;SDS011;66234;47.642;19.144;2023-04-01T16:56:23;1.73;;;0.80;;
77226;SDS011;66234;47.642;19.144;2023-04-01T16:59:37;1.92;;;0.85;;
77226;SDS011;66234;47.642;19.144;2023-04-01T17:02:49;2.47;;;0.90;;
77226;SDS011;66234;47.642;19.144;2023-04-01T17:09:23;1.87;;;1.20;;
77226;SDS011;66234;47.642;19.144;2023-04-01T17:12:39;2.33;;;1.07;;
77226;SDS011;66234;47.642;19.144;2023-04-01T17:15:51;3.22;;;1.83;;
77226;SDS011;66234;47.642;19.144;2023-04-01T17:22:49;5.57;;;2.60;;
77226;SDS011;66234;47.642;19.144;2023-04-01T17:26:28;2.57;;;1.60;;
77226;SDS011;66234;47.642;19.144;2023-04-01T17:30:02;3.33;;;1.77;;
77226;SDS011;66234;47.642;19.144;2023-04-01T17:36:27;2.05;;;1.10;;
77226;SDS011;66234;47.642;19.144;2023-04-01T17:39:58;1.05;;;0.60;;
77226;SDS011;66234;47.642;19.144;2023-04-01T17:43:33;3.50;;;1.00;;
77226;SDS011;66234;47.642;19.144;2023-04-01T17:50:24;2.38;;;1.00;;
77226;SDS011;66234;47.642;19.144;2023-04-01T18:06:21;1.77;;;0.80;;
77226;SDS011;66234;47.642;19.144;2023-04-01T18:25:48;5.47;;;2.25;;
77226;SDS011;66234;47.642;19.144;2023-04-01T18:28:56;4.45;;;1.90;;
77226;SDS011;66234;47.642;19.144;2023-04-01T18:32:11;3.00;;;1.50;;
77226;SDS011;66234;47.642;19.144;2023-04-01T18:46:00;3.63;;;0.95;;
77226;SDS011;66234;47.642;19.144;2023-04-01T18:52:43;1.93;;;0.80;;
77226;SDS011;66234;47.642;19.144;2023-04-01T18:55:54;1.05;;;0.47;;
77226;SDS011;66234;47.642;19.144;2023-04-01T18:59:02;3.75;;;1.20;;
77226;SDS011;66234;47.642;19.144;2023-04-01T19:05:38;1.60;;;0.50;;
77226;SDS011;66234;47.642;19.144;2023-04-01T19:08:43;0.90;;;0.33;;
77226;SDS011;66234;47.642;19.144;2023-04-01T19:11:50;0.98;;;0.47;;
77226;SDS011;66234;47.642;19.144;2023-04-01T19:15:08;1.88;;;0.68;;
77226;SDS011;66234;47.642;19.144;2023-04-01T19:32:14;1.60;;;0.50;;
77226;SDS011;66234;47.642;19.144;2023-04-01T19:35:32;1.08;;;0.35;;
77226;SDS011;66234;47.642;19.144;2023-04-01T19:41:46;2.13;;;0.40;;
77226;SDS011;66234;47.642;19.144;2023-04-01T19:45:14;1.15;;;0.55;;
77226;SDS011;66234;47.642;19.144;2023-04-01T19:48:55;2.22;;;0.40;;
77226;SDS011;66234;47.642;19.144;2023-04-01T19:52:10;1.23;;;0.40;;
77226;SDS011;66234;47.642;19.144;2023-04-01T20:05:16;1.33;;;0.60;;
77226;SDS011;66234;47.642;19.144;2023-04-01T20:12:21;2.20;;;0.67;;
77226;SDS011;66234;47.642;19.144;2023-04-01T20:18:50;2.33;;;0.73;;
77226;SDS011;66234;47.642;19.144;2023-04-01T20:21:59;1.85;;;0.50;;
77226;SDS011;66234;47.642;19.144;2023-04-01T20:25:15;0.75;;;0.30;;
77226;SDS011;66234;47.642;19.144;2023-04-01T20:28:28;1.50;;;0.33;;
77226;SDS011;66234;47.642;19.144;2023-04-01T20:31:43;1.77;;;1.03;;
77226;SDS011;66234;47.642;19.144;2023-04-01T20:35:02;1.63;;;0.50;;
77226;SDS011;66234;47.642;19.144;2023-04-01T20:41:55;3.97;;;2.30;;
77226;SDS011;66234;47.642;19.144;2023-04-01T20:48:45;13.83;;;6.77;;
77226;SDS011;66234;47.642;19.144;2023-04-01T21:02:05;8.20;;;3.43;;
77226;SDS011;66234;47.642;19.144;2023-04-01T21:08:47;5.20;;;3.03;;
77226;SDS011;66234;47.642;19.144;2023-04-01T21:15:50;13.55;;;4.78;;
77226;SDS011;66234;47.642;19.144;2023-04-01T21:22:03;6.23;;;1.70;;
77226;SDS011;66234;47.642;19.144;2023-04-01T21:39:19;3.87;;;2.23;;
77226;SDS011;66234;47.642;19.144;2023-04-01T22:03:10;6.43;;;3.58;;
77226;SDS011;66234;47.642;19.144;2023-04-01T22:06:32;5.63;;;3.10;;
77226;SDS011;66234;47.642;19.144;2023-04-01T22:13:26;8.57;;;3.73;;
77226;SDS011;66234;47.642;19.144;2023-04-01T22:23:31;5.13;;;2.60;;
77226;SDS011;66234;47.642;19.144;2023-04-01T22:33:16;5.22;;;2.70;;
77226;SDS011;66234;47.642;19.144;2023-04-01T22:43:07;4.87;;;2.87;;
77226;SDS011;66234;47.642;19.144;2023-04-01T22:50:29;6.20;;;2.42;;
77226;SDS011;66234;47.642;19.144;2023-04-01T22:53:42;6.38;;;2.60;;
77226;SDS011;66234;47.642;19.144;2023-04-01T22:57:10;7.25;;;3.47;;
77226;SDS011;66234;47.642;19.144;2023-04-01T23:00:20;4.53;;;2.93;;
77226;SDS011;66234;47.642;19.144;2023-04-01T23:03:38;6.57;;;3.00;;
77226;SDS011;66234;47.642;19.144;2023-04-01T23:06:48;4.60;;;2.50;;
77226;SDS011;66234;47.642;19.144;2023-04-01T23:09:54;3.03;;;1.70;;
77226;SDS011;66234;47.642;19.144;2023-04-01T23:13:00;2.65;;;1.25;;
77226;SDS011;66234;47.642;19.144;2023-04-01T23:16:07;2.03;;;1.00;;
77226;SDS011;66234;47.642;19.144;2023-04-01T23:28:49;2.35;;;0.80;;
77226;SDS011;66234;47.642;19.144;2023-04-01T23:31:57;1.77;;;0.73;;
77226;SDS011;66234;47.642;19.144;2023-04-01T23:35:02;1.53;;;0.80;;
77226;SDS011;66234;47.642;19.144;2023-04-01T23:38:04;0.80;;;0.50;;
77226;SDS011;66234;47.642;19.144;2023-04-01T23:41:17;1.55;;;0.60;;
77226;SDS011;66234;47.642;19.144;2023-04-01T23:44:23;2.35;;;0.90;;
77226;SDS011;66234;47.642;19.144;2023-04-01T23:50:33;1.37;;;0.70;;
77226;SDS011;66234;47.642;19.144;2023-04-01T23:53:35;2.90;;;0.63;;
77226;SDS011;66234;47.642;19.144;2023-04-01T23:56:48;1.00;;;0.52;;
